sensor_id;sensor_type;location;lat;lon;timestamp;P1;durP1;ratioP1;P2;durP2;ratioP2
33844;SDS011;20145;43.118;25.694;2023-07-22T00:01:51;8.05;;;4.05;;
33844;SDS011;20145;43.118;25.694;2023-07-22T00:04:16;11.77;;;4.30;;
33844;SDS011;20145;43.118;25.694;2023-07-22T00:06:42;7.13;;;4.13;;
33844;SDS011;20145;43.118;25.694;2023-07-22T00:09:07;9.32;;;4.50;;
33844;SDS011;20145;43.118;25.694;2023-07-22T00:11:35;9.18;;;4.40;;
33844;SDS011;20145;43.118;25.694;2023-07-22T00:14:01;6.82;;;4.32;;
33844;SDS011;20145;43.118;25.694;2023-07-22T00:16:26;9.82;;;4.57;;
33844;SDS011;20145;43.118;25.694;2023-07-22T00:18:54;10.77;;;3.67;;
33844;SDS011;20145;43.118;25.694;2023-07-22T00:21:20;8.60;;;4.28;;
33844;SDS011;20145;43.118;25.694;2023-07-22T00:23:45;7.32;;;4.78;;
33844;SDS011;20145;43.118;25.694;2023-07-22T00:26:12;9.10;;;4.40;;
33844;SDS011;20145;43.118;25.694;2023-07-22T00:28:38;5.80;;;4.00;;
33844;SDS011;20145;43.118;25.694;2023-07-22T00:31:05;7.25;;;4.47;;
33844;SDS011;20145;43.118;25.694;2023-07-22T00:36:02;8.75;;;4.20;;
33844;SDS011;20145;43.118;25.694;2023-07-22T00:38:28;9.10;;;4.40;;
33844;SDS011;20145;43.118;25.694;2023-07-22T00:40:53;7.43;;;4.57;;
33844;SDS011;20145;43.118;25.694;2023-07-22T00:43:19;6.90;;;4.15;;
33844;SDS011;20145;43.118;25.694;2023-07-22T00:45:45;8.38;;;4.30;;
33844;SDS011;20145;43.118;25.694;2023-07-22T00:48:10;10.10;;;4.40;;
33844;SDS011;20145;43.118;25.694;2023-07-22T00:50:38;10.00;;;4.72;;
33844;SDS011;20145;43.118;25.694;2023-07-22T00:53:04;15.10;;;4.72;;
33844;SDS011;20145;43.118;25.694;2023-07-22T00:55:30;10.32;;;3.80;;
33844;SDS011;20145;43.118;25.694;2023-07-22T00:57:58;9.90;;;4.35;;
33844;SDS011;20145;43.118;25.694;2023-07-22T01:00:23;19.92;;;4.53;;
33844;SDS011;20145;43.118;25.694;2023-07-22T01:02:49;15.40;;;5.15;;
33844;SDS011;20145;43.118;25.694;2023-07-22T01:05:15;9.57;;;4.00;;
33844;SDS011;20145;43.118;25.694;2023-07-22T01:07:41;12.82;;;4.13;;
33844;SDS011;20145;43.118;25.694;2023-07-22T01:10:07;8.80;;;5.22;;
33844;SDS011;20145;43.118;25.694;2023-07-22T01:12:36;9.30;;;4.80;;
33844;SDS011;20145;43.118;25.694;2023-07-22T01:15:03;6.35;;;4.53;;
33844;SDS011;20145;43.118;25.694;2023-07-22T01:17:33;8.23;;;4.85;;
33844;SDS011;20145;43.118;25.694;2023-07-22T01:20:00;5.57;;;4.13;;
33844;SDS011;20145;43.118;25.694;2023-07-22T01:22:26;8.18;;;4.20;;
33844;SDS011;20145;43.118;25.694;2023-07-22T01:24:52;6.85;;;4.75;;
33844;SDS011;20145;43.118;25.694;2023-07-22T01:27:19;9.82;;;5.07;;
33844;SDS011;20145;43.118;25.694;2023-07-22T01:29:44;9.27;;;4.68;;
33844;SDS011;20145;43.118;25.694;2023-07-22T01:32:10;7.88;;;4.05;;
33844;SDS011;20145;43.118;25.694;2023-07-22T01:34:36;12.18;;;5.28;;
33844;SDS011;20145;43.118;25.694;2023-07-22T01:37:01;8.32;;;4.40;;
33844;SDS011;20145;43.118;25.694;2023-07-22T01:39:27;6.78;;;4.28;;
33844;SDS011;20145;43.118;25.694;2023-07-22T01:41:53;8.15;;;4.85;;
33844;SDS011;20145;43.118;25.694;2023-07-22T01:44:18;11.35;;;5.30;;
33844;SDS011;20145;43.118;25.694;2023-07-22T01:46:44;9.80;;;5.15;;
33844;SDS011;20145;43.118;25.694;2023-07-22T01:49:10;10.18;;;5.57;;
33844;SDS011;20145;43.118;25.694;2023-07-22T01:51:40;8.50;;;4.15;;
33844;SDS011;20145;43.118;25.694;2023-07-22T01:54:06;8.70;;;4.55;;
33844;SDS011;20145;43.118;25.694;2023-07-22T01:56:32;10.50;;;5.28;;
33844;SDS011;20145;43.118;25.694;2023-07-22T01:58:58;11.00;;;5.13;;
33844;SDS011;20145;43.118;25.694;2023-07-22T02:01:23;8.20;;;4.68;;
33844;SDS011;20145;43.118;25.694;2023-07-22T02:03:49;9.90;;;4.78;;
33844;SDS011;20145;43.118;25.694;2023-07-22T02:06:15;6.30;;;4.47;;
33844;SDS011;20145;43.118;25.694;2023-07-22T02:08:40;7.95;;;4.38;;
33844;SDS011;20145;43.118;25.694;2023-07-22T02:11:07;10.20;;;4.68;;
33844;SDS011;20145;43.118;25.694;2023-07-22T02:13:34;10.43;;;4.22;;
33844;SDS011;20145;43.118;25.694;2023-07-22T02:16:01;11.52;;;4.82;;
33844;SDS011;20145;43.118;25.694;2023-07-22T02:18:27;8.88;;;4.80;;
33844;SDS011;20145;43.118;25.694;2023-07-22T02:20:53;9.05;;;4.53;;
33844;SDS011;20145;43.118;25.694;2023-07-22T02:23:19;20.27;;;5.63;;
33844;SDS011;20145;43.118;25.694;2023-07-22T02:25:49;11.50;;;4.55;;
33844;SDS011;20145;43.118;25.694;2023-07-22T02:28:15;10.68;;;4.38;;
33844;SDS011;20145;43.118;25.694;2023-07-22T02:30:40;6.90;;;4.05;;
33844;SDS011;20145;43.118;25.694;2023-07-22T02:33:07;14.20;;;4.63;;
33844;SDS011;20145;43.118;25.694;2023-07-22T02:35:33;11.82;;;4.10;;
33844;SDS011;20145;43.118;25.694;2023-07-22T02:37:59;12.63;;;4.82;;
33844;SDS011;20145;43.118;25.694;2023-07-22T02:40:24;10.00;;;4.35;;
33844;SDS011;20145;43.118;25.694;2023-07-22T02:42:50;15.07;;;4.30;;
33844;SDS011;20145;43.118;25.694;2023-07-22T02:45:16;9.93;;;4.57;;
33844;SDS011;20145;43.118;25.694;2023-07-22T02:47:42;12.40;;;4.25;;
33844;SDS011;20145;43.118;25.694;2023-07-22T02:50:08;12.90;;;4.70;;
33844;SDS011;20145;43.118;25.694;2023-07-22T02:52:35;9.27;;;4.25;;
33844;SDS011;20145;43.118;25.694;2023-07-22T02:55:05;14.88;;;4.57;;
33844;SDS011;20145;43.118;25.694;2023-07-22T02:57:31;16.50;;;4.20;;
33844;SDS011;20145;43.118;25.694;2023-07-22T02:59:57;13.48;;;4.97;;
33844;SDS011;20145;43.118;25.694;2023-07-22T03:02:22;21.15;;;5.20;;
33844;SDS011;20145;43.118;25.694;2023-07-22T03:04:48;15.95;;;4.30;;
33844;SDS011;20145;43.118;25.694;2023-07-22T03:07:13;11.48;;;4.28;;
33844;SDS011;20145;43.118;25.694;2023-07-22T03:09:39;10.93;;;4.35;;
33844;SDS011;20145;43.118;25.694;2023-07-22T03:12:05;13.80;;;4.57;;
33844;SDS011;20145;43.118;25.694;2023-07-22T03:14:31;10.23;;;4.60;;
33844;SDS011;20145;43.118;25.694;2023-07-22T03:17:01;11.00;;;3.85;;
33844;SDS011;20145;43.118;25.694;2023-07-22T03:19:28;9.30;;;4.13;;
33844;SDS011;20145;43.118;25.694;2023-07-22T03:21:54;8.15;;;4.18;;
33844;SDS011;20145;43.118;25.694;2023-07-22T03:24:20;15.10;;;4.72;;
33844;SDS011;20145;43.118;25.694;2023-07-22T03:26:45;13.95;;;4.22;;
33844;SDS011;20145;43.118;25.694;2023-07-22T03:29:11;11.40;;;3.90;;
33844;SDS011;20145;43.118;25.694;2023-07-22T03:31:36;9.48;;;4.38;;
33844;SDS011;20145;43.118;25.694;2023-07-22T03:34:02;11.35;;;3.90;;
33844;SDS011;20145;43.118;25.694;2023-07-22T03:36:28;10.27;;;3.92;;
33844;SDS011;20145;43.118;25.694;2023-07-22T03:38:54;8.25;;;4.18;;
33844;SDS011;20145;43.118;25.694;2023-07-22T03:41:19;11.77;;;4.38;;
33844;SDS011;20145;43.118;25.694;2023-07-22T03:43:45;13.15;;;5.80;;
33844;SDS011;20145;43.118;25.694;2023-07-22T03:46:10;10.38;;;4.18;;
33844;SDS011;20145;43.118;25.694;2023-07-22T03:48:36;13.57;;;4.28;;
33844;SDS011;20145;43.118;25.694;2023-07-22T03:51:01;17.33;;;4.20;;
33844;SDS011;20145;43.118;25.694;2023-07-22T03:53:27;9.95;;;4.32;;
33844;SDS011;20145;43.118;25.694;2023-07-22T03:55:52;12.18;;;3.95;;
33844;SDS011;20145;43.118;25.694;2023-07-22T03:58:18;10.40;;;4.50;;
33844;SDS011;20145;43.118;25.694;2023-07-22T04:00:47;12.52;;;5.25;;
33844;SDS011;20145;43.118;25.694;2023-07-22T04:03:14;12.80;;;4.28;;
33844;SDS011;20145;43.118;25.694;2023-07-22T04:05:39;15.73;;;3.95;;
33844;SDS011;20145;43.118;25.694;2023-07-22T04:08:05;8.57;;;4.00;;
33844;SDS011;20145;43.118;25.694;2023-07-22T04:10:31;25.77;;;4.22;;
33844;SDS011;20145;43.118;25.694;2023-07-22T04:12:56;6.82;;;3.60;;
33844;SDS011;20145;43.118;25.694;2023-07-22T04:15:22;11.52;;;4.00;;
33844;SDS011;20145;43.118;25.694;2023-07-22T04:17:48;5.60;;;3.35;;
33844;SDS011;20145;43.118;25.694;2023-07-22T04:20:13;12.55;;;3.70;;
33844;SDS011;20145;43.118;25.694;2023-07-22T04:22:39;13.93;;;3.97;;
33844;SDS011;20145;43.118;25.694;2023-07-22T04:25:05;12.88;;;3.40;;
33844;SDS011;20145;43.118;25.694;2023-07-22T04:27:31;9.00;;;4.05;;
33844;SDS011;20145;43.118;25.694;2023-07-22T04:29:56;7.47;;;3.50;;
33844;SDS011;20145;43.118;25.694;2023-07-22T04:32:22;11.85;;;3.20;;
33844;SDS011;20145;43.118;25.694;2023-07-22T04:34:48;8.70;;;3.95;;
33844;SDS011;20145;43.118;25.694;2023-07-22T04:37:13;9.50;;;3.83;;
33844;SDS011;20145;43.118;25.694;2023-07-22T04:39:39;11.48;;;3.25;;
33844;SDS011;20145;43.118;25.694;2023-07-22T04:42:04;11.65;;;3.72;;
33844;SDS011;20145;43.118;25.694;2023-07-22T04:44:30;9.88;;;4.28;;
33844;SDS011;20145;43.118;25.694;2023-07-22T04:46:56;10.35;;;3.83;;
33844;SDS011;20145;43.118;25.694;2023-07-22T04:49:21;11.90;;;4.15;;
33844;SDS011;20145;43.118;25.694;2023-07-22T04:51:47;11.27;;;3.90;;
33844;SDS011;20145;43.118;25.694;2023-07-22T04:54:13;13.00;;;3.95;;
33844;SDS011;20145;43.118;25.694;2023-07-22T04:56:40;15.85;;;3.97;;
33844;SDS011;20145;43.118;25.694;2023-07-22T04:59:06;17.15;;;5.10;;
33844;SDS011;20145;43.118;25.694;2023-07-22T05:01:32;13.98;;;3.92;;
33844;SDS011;20145;43.118;25.694;2023-07-22T05:03:58;11.52;;;5.22;;
33844;SDS011;20145;43.118;25.694;2023-07-22T05:06:23;11.52;;;5.03;;
33844;SDS011;20145;43.118;25.694;2023-07-22T05:08:50;12.77;;;4.38;;
33844;SDS011;20145;43.118;25.694;2023-07-22T05:11:17;11.93;;;5.15;;
33844;SDS011;20145;43.118;25.694;2023-07-22T05:13:43;12.13;;;5.03;;
33844;SDS011;20145;43.118;25.694;2023-07-22T05:16:09;14.63;;;5.30;;
33844;SDS011;20145;43.118;25.694;2023-07-22T05:18:34;12.65;;;4.90;;
33844;SDS011;20145;43.118;25.694;2023-07-22T05:21:00;9.57;;;5.07;;
33844;SDS011;20145;43.118;25.694;2023-07-22T05:23:26;16.00;;;5.15;;
33844;SDS011;20145;43.118;25.694;2023-07-22T05:25:52;10.10;;;5.07;;
33844;SDS011;20145;43.118;25.694;2023-07-22T05:28:19;11.48;;;5.57;;
33844;SDS011;20145;43.118;25.694;2023-07-22T05:30:44;12.02;;;5.80;;
33844;SDS011;20145;43.118;25.694;2023-07-22T05:33:10;18.58;;;6.15;;
33844;SDS011;20145;43.118;25.694;2023-07-22T05:35:36;13.30;;;6.00;;
33844;SDS011;20145;43.118;25.694;2023-07-22T05:38:01;10.20;;;6.45;;
33844;SDS011;20145;43.118;25.694;2023-07-22T05:40:29;12.25;;;6.72;;
33844;SDS011;20145;43.118;25.694;2023-07-22T05:42:55;15.02;;;6.03;;
33844;SDS011;20145;43.118;25.694;2023-07-22T05:45:21;7.70;;;5.60;;
33844;SDS011;20145;43.118;25.694;2023-07-22T05:47:47;14.02;;;5.85;;
33844;SDS011;20145;43.118;25.694;2023-07-22T05:50:12;16.80;;;5.82;;
33844;SDS011;20145;43.118;25.694;2023-07-22T05:52:38;10.70;;;5.57;;
33844;SDS011;20145;43.118;25.694;2023-07-22T05:55:04;11.00;;;5.30;;
33844;SDS011;20145;43.118;25.694;2023-07-22T05:57:30;8.95;;;5.07;;
33844;SDS011;20145;43.118;25.694;2023-07-22T05:59:55;10.63;;;5.07;;
33844;SDS011;20145;43.118;25.694;2023-07-22T06:02:21;13.43;;;6.00;;
33844;SDS011;20145;43.118;25.694;2023-07-22T06:04:47;12.82;;;6.22;;
33844;SDS011;20145;43.118;25.694;2023-07-22T06:07:13;13.75;;;6.55;;
33844;SDS011;20145;43.118;25.694;2023-07-22T06:09:39;14.90;;;5.70;;
33844;SDS011;20145;43.118;25.694;2023-07-22T06:12:04;15.20;;;5.60;;
33844;SDS011;20145;43.118;25.694;2023-07-22T06:14:30;20.23;;;5.88;;
33844;SDS011;20145;43.118;25.694;2023-07-22T06:16:56;11.13;;;5.72;;
33844;SDS011;20145;43.118;25.694;2023-07-22T06:19:22;11.45;;;6.60;;
33844;SDS011;20145;43.118;25.694;2023-07-22T06:21:51;17.90;;;6.03;;
33844;SDS011;20145;43.118;25.694;2023-07-22T06:24:16;14.90;;;6.20;;
33844;SDS011;20145;43.118;25.694;2023-07-22T06:26:42;12.07;;;5.75;;
33844;SDS011;20145;43.118;25.694;2023-07-22T06:29:07;10.90;;;6.07;;
33844;SDS011;20145;43.118;25.694;2023-07-22T06:31:34;10.23;;;5.65;;
33844;SDS011;20145;43.118;25.694;2023-07-22T06:34:00;10.88;;;5.82;;
33844;SDS011;20145;43.118;25.694;2023-07-22T06:36:26;11.80;;;5.82;;
33844;SDS011;20145;43.118;25.694;2023-07-22T06:38:51;13.82;;;6.00;;
33844;SDS011;20145;43.118;25.694;2023-07-22T06:41:17;9.18;;;5.53;;
33844;SDS011;20145;43.118;25.694;2023-07-22T06:43:44;8.50;;;4.97;;
33844;SDS011;20145;43.118;25.694;2023-07-22T06:46:10;8.30;;;5.40;;
33844;SDS011;20145;43.118;25.694;2023-07-22T06:48:35;12.45;;;5.60;;
33844;SDS011;20145;43.118;25.694;2023-07-22T06:51:01;11.48;;;4.85;;
33844;SDS011;20145;43.118;25.694;2023-07-22T06:53:26;7.70;;;4.60;;
33844;SDS011;20145;43.118;25.694;2023-07-22T06:55:52;12.00;;;4.65;;
33844;SDS011;20145;43.118;25.694;2023-07-22T06:58:19;8.52;;;4.80;;
33844;SDS011;20145;43.118;25.694;2023-07-22T07:00:45;12.52;;;4.60;;
33844;SDS011;20145;43.118;25.694;2023-07-22T07:03:11;9.98;;;4.90;;
33844;SDS011;20145;43.118;25.694;2023-07-22T07:05:37;12.77;;;5.00;;
33844;SDS011;20145;43.118;25.694;2023-07-22T07:08:06;8.80;;;4.65;;
33844;SDS011;20145;43.118;25.694;2023-07-22T07:10:36;10.45;;;5.57;;
33844;SDS011;20145;43.118;25.694;2023-07-22T07:13:03;8.05;;;5.05;;
33844;SDS011;20145;43.118;25.694;2023-07-22T07:15:28;11.63;;;4.35;;
33844;SDS011;20145;43.118;25.694;2023-07-22T07:17:54;10.35;;;3.88;;
33844;SDS011;20145;43.118;25.694;2023-07-22T07:20:19;9.85;;;4.80;;
33844;SDS011;20145;43.118;25.694;2023-07-22T07:22:45;12.38;;;4.57;;
33844;SDS011;20145;43.118;25.694;2023-07-22T07:25:11;12.68;;;4.38;;
33844;SDS011;20145;43.118;25.694;2023-07-22T07:27:37;11.07;;;4.38;;
33844;SDS011;20145;43.118;25.694;2023-07-22T07:30:02;15.98;;;4.70;;
33844;SDS011;20145;43.118;25.694;2023-07-22T07:32:28;8.52;;;4.20;;
33844;SDS011;20145;43.118;25.694;2023-07-22T07:34:53;8.52;;;3.25;;
33844;SDS011;20145;43.118;25.694;2023-07-22T07:37:19;7.43;;;3.88;;
33844;SDS011;20145;43.118;25.694;2023-07-22T07:39:45;10.60;;;4.32;;
33844;SDS011;20145;43.118;25.694;2023-07-22T07:42:10;10.40;;;3.47;;
33844;SDS011;20145;43.118;25.694;2023-07-22T07:44:36;8.30;;;3.03;;
33844;SDS011;20145;43.118;25.694;2023-07-22T07:47:02;8.43;;;2.92;;
33844;SDS011;20145;43.118;25.694;2023-07-22T07:49:28;26.33;;;5.20;;
33844;SDS011;20145;43.118;25.694;2023-07-22T07:51:54;19.08;;;3.17;;
33844;SDS011;20145;43.118;25.694;2023-07-22T07:54:19;13.13;;;4.00;;
33844;SDS011;20145;43.118;25.694;2023-07-22T07:56:46;13.05;;;3.80;;
33844;SDS011;20145;43.118;25.694;2023-07-22T07:59:11;7.88;;;3.72;;
33844;SDS011;20145;43.118;25.694;2023-07-22T08:01:37;9.23;;;2.90;;
33844;SDS011;20145;43.118;25.694;2023-07-22T08:04:06;7.45;;;3.22;;
33844;SDS011;20145;43.118;25.694;2023-07-22T08:06:33;11.48;;;3.40;;
33844;SDS011;20145;43.118;25.694;2023-07-22T08:08:58;8.70;;;3.00;;
33844;SDS011;20145;43.118;25.694;2023-07-22T08:11:24;13.02;;;3.70;;
33844;SDS011;20145;43.118;25.694;2023-07-22T08:14:04;9.63;;;3.22;;
33844;SDS011;20145;43.118;25.694;2023-07-22T08:18:56;10.50;;;3.30;;
33844;SDS011;20145;43.118;25.694;2023-07-22T08:21:21;7.22;;;3.03;;
33844;SDS011;20145;43.118;25.694;2023-07-22T08:23:47;10.32;;;3.50;;
33844;SDS011;20145;43.118;25.694;2023-07-22T08:26:13;8.30;;;3.28;;
33844;SDS011;20145;43.118;25.694;2023-07-22T08:28:39;11.02;;;3.28;;
33844;SDS011;20145;43.118;25.694;2023-07-22T08:31:05;8.73;;;3.20;;
33844;SDS011;20145;43.118;25.694;2023-07-22T08:33:31;10.75;;;3.05;;
33844;SDS011;20145;43.118;25.694;2023-07-22T08:35:57;9.88;;;4.07;;
33844;SDS011;20145;43.118;25.694;2023-07-22T08:38:36;9.65;;;3.08;;
33844;SDS011;20145;43.118;25.694;2023-07-22T08:43:30;7.80;;;3.05;;
33844;SDS011;20145;43.118;25.694;2023-07-22T08:48:32;7.75;;;3.72;;
33844;SDS011;20145;43.118;25.694;2023-07-22T08:51:09;6.45;;;3.15;;
33844;SDS011;20145;43.118;25.694;2023-07-22T08:53:38;10.00;;;3.35;;
33844;SDS011;20145;43.118;25.694;2023-07-22T08:58:36;7.90;;;3.17;;
33844;SDS011;20145;43.118;25.694;2023-07-22T09:01:03;9.23;;;2.80;;
33844;SDS011;20145;43.118;25.694;2023-07-22T09:03:31;8.95;;;2.50;;
33844;SDS011;20145;43.118;25.694;2023-07-22T09:05:58;8.13;;;2.90;;
33844;SDS011;20145;43.118;25.694;2023-07-22T09:08:25;6.13;;;3.22;;
33844;SDS011;20145;43.118;25.694;2023-07-22T09:10:51;7.38;;;3.42;;
33844;SDS011;20145;43.118;25.694;2023-07-22T09:16:17;8.90;;;3.30;;
33844;SDS011;20145;43.118;25.694;2023-07-22T09:23:41;7.63;;;3.15;;
33844;SDS011;20145;43.118;25.694;2023-07-22T09:26:13;8.95;;;3.15;;
33844;SDS011;20145;43.118;25.694;2023-07-22T09:28:55;9.18;;;3.10;;
33844;SDS011;20145;43.118;25.694;2023-07-22T09:36:54;9.50;;;2.80;;
33844;SDS011;20145;43.118;25.694;2023-07-22T09:39:38;9.52;;;3.50;;
33844;SDS011;20145;43.118;25.694;2023-07-22T09:42:04;10.10;;;3.55;;
33844;SDS011;20145;43.118;25.694;2023-07-22T09:44:31;9.60;;;2.75;;
33844;SDS011;20145;43.118;25.694;2023-07-22T09:46:57;8.15;;;2.78;;
33844;SDS011;20145;43.118;25.694;2023-07-22T09:49:23;8.32;;;3.20;;
33844;SDS011;20145;43.118;25.694;2023-07-22T09:51:50;7.15;;;2.65;;
33844;SDS011;20145;43.118;25.694;2023-07-22T09:54:17;12.98;;;2.70;;
33844;SDS011;20145;43.118;25.694;2023-07-22T09:56:45;6.80;;;2.95;;
33844;SDS011;20145;43.118;25.694;2023-07-22T10:01:48;5.68;;;2.67;;
33844;SDS011;20145;43.118;25.694;2023-07-22T10:04:15;6.00;;;2.55;;
33844;SDS011;20145;43.118;25.694;2023-07-22T10:06:42;9.07;;;2.60;;
33844;SDS011;20145;43.118;25.694;2023-07-22T10:09:08;8.80;;;2.80;;
33844;SDS011;20145;43.118;25.694;2023-07-22T10:11:37;7.45;;;2.60;;
33844;SDS011;20145;43.118;25.694;2023-07-22T10:14:04;6.07;;;2.65;;
33844;SDS011;20145;43.118;25.694;2023-07-22T10:16:30;8.07;;;2.65;;
33844;SDS011;20145;43.118;25.694;2023-07-22T10:18:57;7.93;;;2.70;;
33844;SDS011;20145;43.118;25.694;2023-07-22T10:21:23;11.07;;;3.03;;
33844;SDS011;20145;43.118;25.694;2023-07-22T10:23:51;8.20;;;2.80;;
33844;SDS011;20145;43.118;25.694;2023-07-22T10:26:17;10.00;;;2.65;;
33844;SDS011;20145;43.118;25.694;2023-07-22T10:28:44;6.63;;;2.65;;
33844;SDS011;20145;43.118;25.694;2023-07-22T10:31:11;7.50;;;3.17;;
33844;SDS011;20145;43.118;25.694;2023-07-22T10:33:38;12.40;;;3.53;;
33844;SDS011;20145;43.118;25.694;2023-07-22T10:36:06;9.60;;;3.10;;
33844;SDS011;20145;43.118;25.694;2023-07-22T10:38:38;11.38;;;3.17;;
33844;SDS011;20145;43.118;25.694;2023-07-22T10:41:14;5.80;;;2.65;;
33844;SDS011;20145;43.118;25.694;2023-07-22T10:43:53;11.98;;;3.05;;
33844;SDS011;20145;43.118;25.694;2023-07-22T10:46:30;8.35;;;2.78;;
33844;SDS011;20145;43.118;25.694;2023-07-22T10:49:15;7.35;;;3.13;;
33844;SDS011;20145;43.118;25.694;2023-07-22T10:51:47;6.35;;;3.13;;
33844;SDS011;20145;43.118;25.694;2023-07-22T10:54:14;7.85;;;2.92;;
33844;SDS011;20145;43.118;25.694;2023-07-22T10:56:41;10.35;;;2.70;;
33844;SDS011;20145;43.118;25.694;2023-07-22T10:59:10;8.02;;;2.70;;
33844;SDS011;20145;43.118;25.694;2023-07-22T11:01:36;7.05;;;3.15;;
33844;SDS011;20145;43.118;25.694;2023-07-22T11:06:58;10.65;;;3.55;;
33844;SDS011;20145;43.118;25.694;2023-07-22T11:12:05;7.13;;;2.80;;
33844;SDS011;20145;43.118;25.694;2023-07-22T11:14:50;11.80;;;2.83;;
33844;SDS011;20145;43.118;25.694;2023-07-22T11:17:27;11.27;;;2.95;;
33844;SDS011;20145;43.118;25.694;2023-07-22T11:19:58;11.25;;;2.72;;
33844;SDS011;20145;43.118;25.694;2023-07-22T11:22:24;7.82;;;3.03;;
33844;SDS011;20145;43.118;25.694;2023-07-22T11:24:50;8.20;;;3.15;;
33844;SDS011;20145;43.118;25.694;2023-07-22T11:27:17;5.85;;;2.47;;
33844;SDS011;20145;43.118;25.694;2023-07-22T11:29:44;11.23;;;3.72;;
33844;SDS011;20145;43.118;25.694;2023-07-22T11:32:15;6.20;;;2.78;;
33844;SDS011;20145;43.118;25.694;2023-07-22T11:34:42;12.75;;;3.42;;
33844;SDS011;20145;43.118;25.694;2023-07-22T11:37:09;8.18;;;3.10;;
33844;SDS011;20145;43.118;25.694;2023-07-22T11:39:36;11.13;;;3.40;;
33844;SDS011;20145;43.118;25.694;2023-07-22T11:42:02;7.93;;;2.92;;
33844;SDS011;20145;43.118;25.694;2023-07-22T11:44:29;13.15;;;3.08;;
33844;SDS011;20145;43.118;25.694;2023-07-22T11:46:56;7.82;;;2.95;;
33844;SDS011;20145;43.118;25.694;2023-07-22T11:49:28;6.28;;;3.08;;
33844;SDS011;20145;43.118;25.694;2023-07-22T11:52:05;8.00;;;3.17;;
33844;SDS011;20145;43.118;25.694;2023-07-22T11:54:38;14.20;;;4.03;;
33844;SDS011;20145;43.118;25.694;2023-07-22T11:59:43;10.98;;;3.47;;
33844;SDS011;20145;43.118;25.694;2023-07-22T12:02:13;8.60;;;2.95;;
33844;SDS011;20145;43.118;25.694;2023-07-22T12:04:40;9.23;;;2.88;;
33844;SDS011;20145;43.118;25.694;2023-07-22T12:07:05;9.45;;;3.05;;
33844;SDS011;20145;43.118;25.694;2023-07-22T12:09:31;6.00;;;3.42;;
33844;SDS011;20145;43.118;25.694;2023-07-22T12:11:57;10.52;;;3.25;;
33844;SDS011;20145;43.118;25.694;2023-07-22T12:14:24;10.20;;;3.30;;
33844;SDS011;20145;43.118;25.694;2023-07-22T12:16:57;12.65;;;3.15;;
33844;SDS011;20145;43.118;25.694;2023-07-22T12:19:22;18.52;;;3.92;;
33844;SDS011;20145;43.118;25.694;2023-07-22T12:21:48;9.35;;;3.47;;
33844;SDS011;20145;43.118;25.694;2023-07-22T12:24:14;12.68;;;3.70;;
33844;SDS011;20145;43.118;25.694;2023-07-22T12:26:40;8.85;;;3.35;;
33844;SDS011;20145;43.118;25.694;2023-07-22T12:29:07;12.30;;;3.90;;
33844;SDS011;20145;43.118;25.694;2023-07-22T12:31:33;11.40;;;3.38;;
33844;SDS011;20145;43.118;25.694;2023-07-22T12:33:58;10.57;;;3.55;;
33844;SDS011;20145;43.118;25.694;2023-07-22T12:36:24;9.73;;;3.00;;
33844;SDS011;20145;43.118;25.694;2023-07-22T12:38:50;10.15;;;3.80;;
33844;SDS011;20145;43.118;25.694;2023-07-22T12:41:16;10.68;;;3.30;;
33844;SDS011;20145;43.118;25.694;2023-07-22T12:43:41;12.43;;;3.15;;
33844;SDS011;20145;43.118;25.694;2023-07-22T12:46:07;7.32;;;3.08;;
33844;SDS011;20145;43.118;25.694;2023-07-22T12:48:33;15.45;;;3.90;;
33844;SDS011;20145;43.118;25.694;2023-07-22T12:50:58;9.07;;;3.45;;
33844;SDS011;20145;43.118;25.694;2023-07-22T12:53:24;9.95;;;3.40;;
33844;SDS011;20145;43.118;25.694;2023-07-22T12:55:50;9.70;;;3.20;;
33844;SDS011;20145;43.118;25.694;2023-07-22T12:58:16;10.52;;;3.17;;
33844;SDS011;20145;43.118;25.694;2023-07-22T13:00:41;8.23;;;3.45;;
33844;SDS011;20145;43.118;25.694;2023-07-22T13:03:07;9.10;;;3.20;;
33844;SDS011;20145;43.118;25.694;2023-07-22T13:05:32;12.88;;;3.05;;
33844;SDS011;20145;43.118;25.694;2023-07-22T13:07:58;11.10;;;4.15;;
33844;SDS011;20145;43.118;25.694;2023-07-22T13:10:26;8.23;;;3.20;;
33844;SDS011;20145;43.118;25.694;2023-07-22T13:12:56;10.45;;;4.07;;
33844;SDS011;20145;43.118;25.694;2023-07-22T13:15:22;10.60;;;3.53;;
33844;SDS011;20145;43.118;25.694;2023-07-22T13:17:48;7.93;;;3.40;;
33844;SDS011;20145;43.118;25.694;2023-07-22T13:20:13;11.50;;;3.35;;
33844;SDS011;20145;43.118;25.694;2023-07-22T13:22:39;6.50;;;2.92;;
33844;SDS011;20145;43.118;25.694;2023-07-22T13:25:05;12.48;;;3.38;;
33844;SDS011;20145;43.118;25.694;2023-07-22T13:27:31;9.70;;;3.20;;
33844;SDS011;20145;43.118;25.694;2023-07-22T13:29:57;11.85;;;3.70;;
33844;SDS011;20145;43.118;25.694;2023-07-22T13:32:23;15.30;;;3.80;;
33844;SDS011;20145;43.118;25.694;2023-07-22T13:34:49;10.15;;;3.33;;
33844;SDS011;20145;43.118;25.694;2023-07-22T13:37:14;9.38;;;3.50;;
33844;SDS011;20145;43.118;25.694;2023-07-22T13:39:40;10.20;;;3.15;;
33844;SDS011;20145;43.118;25.694;2023-07-22T13:42:05;8.93;;;3.50;;
33844;SDS011;20145;43.118;25.694;2023-07-22T13:44:31;10.77;;;3.95;;
33844;SDS011;20145;43.118;25.694;2023-07-22T13:46:56;10.98;;;4.03;;
33844;SDS011;20145;43.118;25.694;2023-07-22T13:49:22;14.65;;;3.92;;
33844;SDS011;20145;43.118;25.694;2023-07-22T13:51:48;12.85;;;3.63;;
33844;SDS011;20145;43.118;25.694;2023-07-22T13:54:13;9.60;;;4.45;;
33844;SDS011;20145;43.118;25.694;2023-07-22T13:56:39;11.18;;;4.22;;
33844;SDS011;20145;43.118;25.694;2023-07-22T13:59:05;10.02;;;3.35;;
33844;SDS011;20145;43.118;25.694;2023-07-22T14:01:31;11.75;;;4.15;;
33844;SDS011;20145;43.118;25.694;2023-07-22T14:03:56;11.45;;;4.00;;
33844;SDS011;20145;43.118;25.694;2023-07-22T14:06:22;11.55;;;4.57;;
33844;SDS011;20145;43.118;25.694;2023-07-22T14:08:48;10.07;;;3.83;;
33844;SDS011;20145;43.118;25.694;2023-07-22T14:11:14;12.90;;;3.60;;
33844;SDS011;20145;43.118;25.694;2023-07-22T14:13:39;10.43;;;4.05;;
33844;SDS011;20145;43.118;25.694;2023-07-22T14:16:05;15.13;;;4.22;;
33844;SDS011;20145;43.118;25.694;2023-07-22T14:18:30;10.25;;;4.40;;
33844;SDS011;20145;43.118;25.694;2023-07-22T14:20:56;12.18;;;4.97;;
33844;SDS011;20145;43.118;25.694;2023-07-22T14:23:21;14.50;;;4.97;;
33844;SDS011;20145;43.118;25.694;2023-07-22T14:25:47;10.55;;;4.70;;
33844;SDS011;20145;43.118;25.694;2023-07-22T14:28:12;13.30;;;4.60;;
33844;SDS011;20145;43.118;25.694;2023-07-22T14:30:38;9.55;;;3.90;;
33844;SDS011;20145;43.118;25.694;2023-07-22T14:33:04;11.98;;;5.53;;
33844;SDS011;20145;43.118;25.694;2023-07-22T14:35:29;14.98;;;4.97;;
33844;SDS011;20145;43.118;25.694;2023-07-22T14:37:57;12.63;;;5.38;;
33844;SDS011;20145;43.118;25.694;2023-07-22T14:40:24;12.73;;;4.43;;
33844;SDS011;20145;43.118;25.694;2023-07-22T14:42:50;12.63;;;4.65;;
33844;SDS011;20145;43.118;25.694;2023-07-22T14:45:16;16.20;;;4.70;;
33844;SDS011;20145;43.118;25.694;2023-07-22T14:47:42;11.88;;;4.32;;
33844;SDS011;20145;43.118;25.694;2023-07-22T14:50:07;17.67;;;5.18;;
33844;SDS011;20145;43.118;25.694;2023-07-22T14:52:33;7.63;;;4.30;;
33844;SDS011;20145;43.118;25.694;2023-07-22T14:54:59;12.63;;;4.90;;
33844;SDS011;20145;43.118;25.694;2023-07-22T14:57:24;10.75;;;4.00;;
33844;SDS011;20145;43.118;25.694;2023-07-22T14:59:54;10.95;;;4.90;;